Loon op Zand, Netherlands
Current Conditions -  °F | °C
As of 9:25 PM on Wednesday 28 Jan 2015 (Local Time) from EHGR Reporting Station
Broken Clouds Broken Clouds  
Wind Chill: 32°   Ceiling: 13600
Heat Index: 39°   Visibility: 6mi
Dew Point: 30°   Wind: 12mph
Humidity: 70%   Direction: 270°W
Pressure: 29.47"   Gusts: NA
Location:  51.63°N, 5.08°E
Report Text: EHGR 282025Z AUTO 27010KT 9999 FEW009 FEW020TCU SCT077 BKN136 04/M01 Q0998 REDZ BLU 28010KT 9999 SCT030 TEMPO 5000 -SHRAGSSN SCT020CB
Loading
Personal Weather Stations






























Interactive Weather Map New forecast layout! Learn more

10-Day Weather Forecast

Advertisements
Track Severe Weather on mobile